Time;durP1;ratioP1;P1;durP2;ratioP2;P2;SDS_P1;SDS_P2;PMS_P1;PMS_P2;Temp;Humidity;BMP_temperature;BMP_pressure;BME280_temperature;BME280_humidity;BME280_pressure;Samples;Min_cycle;Max_cycle;Signal;HPM_P1;HPM_P2
2023/07/12 00:00:21;;;;;;;18.60;4.18;;;;;;;;;;5021498;28;20037;-67
2023/07/12 00:02:46;;;;;;;13.60;3.40;;;;;;;;;;5016271;28;20052;-65
2023/07/12 00:05:12;;;;;;;15.35;3.65;;;;;;;;;;5020651;28;22316;-68
2023/07/12 00:07:37;;;;;;;16.80;3.90;;;;;;;;;;5038045;28;20116;-67
2023/07/12 00:10:05;;;;;;;16.90;3.92;;;;;;;;;;5022044;28;20040;-68
2023/07/12 00:12:31;;;;;;;17.00;3.90;;;;;;;;;;5018960;28;22279;-68
2023/07/12 00:14:56;;;;;;;20.30;4.00;;;;;;;;;;5020971;28;20109;-67
2023/07/12 00:17:21;;;;;;;20.48;3.85;;;;;;;;;;5052102;28;20306;-67
2023/07/12 00:19:47;;;;;;;22.70;4.43;;;;;;;;;;5021445;28;20047;-69
2023/07/12 00:22:12;;;;;;;15.77;3.60;;;;;;;;;;5018219;28;20048;-67
2023/07/12 00:24:37;;;;;;;20.05;4.07;;;;;;;;;;5024130;28;20087;-69
2023/07/12 00:27:03;;;;;;;16.60;4.18;;;;;;;;;;5053663;28;20164;-68
2023/07/12 00:29:28;;;;;;;23.75;4.20;;;;;;;;;;5022135;28;20167;-67
2023/07/12 00:31:53;;;;;;;21.77;4.28;;;;;;;;;;5001587;28;20041;-67
2023/07/12 00:34:19;;;;;;;16.98;4.05;;;;;;;;;;5020324;28;20041;-69
2023/07/12 00:36:44;;;;;;;21.13;4.32;;;;;;;;;;5047782;28;20068;-70
2023/07/12 00:39:10;;;;;;;19.88;4.30;;;;;;;;;;5019629;28;20041;-68
2023/07/12 00:41:54;;;;;;;16.77;4.05;;;;;;;;;;5019531;28;20094;-71
2023/07/12 00:44:22;;;;;;;21.25;4.22;;;;;;;;;;5018272;28;20099;-72
2023/07/12 00:46:49;;;;;;;21.70;5.25;;;;;;;;;;5031323;28;20800;-72
2023/07/12 00:49:15;;;;;;;28.42;5.25;;;;;;;;;;5019598;28;20667;-71
2023/07/12 00:51:43;;;;;;;18.45;4.60;;;;;;;;;;5021441;28;20116;-71
2023/07/12 00:54:15;;;;;;;21.75;4.53;;;;;;;;;;5014201;28;20063;-71
2023/07/12 00:56:40;;;;;;;23.25;4.88;;;;;;;;;;5015070;28;21029;-70
2023/07/12 00:59:09;;;;;;;17.75;4.35;;;;;;;;;;5002214;28;20146;-71
2023/07/12 01:01:36;;;;;;;18.40;4.20;;;;;;;;;;5017282;28;20040;-73
2023/07/12 01:04:03;;;;;;;19.80;4.63;;;;;;;;;;5019269;28;20040;-69
2023/07/12 01:06:28;;;;;;;19.05;4.60;;;;;;;;;;5019008;28;20034;-70
2023/07/12 01:08:54;;;;;;;20.60;4.95;;;;;;;;;;5019326;28;20045;-69
2023/07/12 01:11:21;;;;;;;17.63;4.38;;;;;;;;;;5020512;28;20048;-71
2023/07/12 01:13:49;;;;;;;21.67;4.43;;;;;;;;;;5019808;28;20048;-70
2023/07/12 01:16:17;;;;;;;17.88;3.80;;;;;;;;;;5020074;28;20184;-69
2023/07/12 01:18:42;;;;;;;18.02;4.07;;;;;;;;;;5018561;28;20029;-70
2023/07/12 01:21:07;;;;;;;21.33;4.90;;;;;;;;;;5021715;28;20043;-70
2023/07/12 01:23:35;;;;;;;22.77;4.40;;;;;;;;;;5019318;28;20048;-71
2023/07/12 01:26:15;;;;;;;21.85;4.13;;;;;;;;;;5019636;28;20045;-69
2023/07/12 01:28:41;;;;;;;26.42;4.45;;;;;;;;;;5019851;28;20136;-71
2023/07/12 01:31:06;;;;;;;21.67;4.57;;;;;;;;;;5020058;28;22278;-71
2023/07/12 01:33:32;;;;;;;21.58;4.07;;;;;;;;;;5019477;28;20083;-69
2023/07/12 01:35:57;;;;;;;22.10;4.10;;;;;;;;;;5018849;28;20048;-71
2023/07/12 01:38:22;;;;;;;23.85;4.10;;;;;;;;;;5050407;28;20143;-69
2023/07/12 01:40:48;;;;;;;21.65;4.50;;;;;;;;;;5015168;28;20048;-70
2023/07/12 01:43:14;;;;;;;22.20;4.70;;;;;;;;;;5011542;28;22202;-69
2023/07/12 01:45:39;;;;;;;19.67;4.90;;;;;;;;;;4998851;28;20040;-67
2023/07/12 01:48:04;;;;;;;21.60;4.60;;;;;;;;;;4998000;28;20084;-68
2023/07/12 01:50:32;;;;;;;26.40;4.70;;;;;;;;;;4996728;28;20041;-70
2023/07/12 01:52:57;;;;;;;23.35;4.30;;;;;;;;;;4996027;28;20495;-69
2023/07/12 01:55:22;;;;;;;20.58;4.53;;;;;;;;;;4998209;28;20251;-70
2023/07/12 01:57:48;;;;;;;19.88;4.68;;;;;;;;;;5028950;28;20485;-70
2023/07/12 02:00:13;;;;;;;23.67;4.50;;;;;;;;;;5030250;28;20025;-70
2023/07/12 02:02:39;;;;;;;17.52;4.32;;;;;;;;;;4996511;28;20088;-70
2023/07/12 02:05:04;;;;;;;28.58;4.43;;;;;;;;;;4997391;28;20132;-71
2023/07/12 02:07:29;;;;;;;22.42;4.57;;;;;;;;;;5012940;28;20041;-70
2023/07/12 02:10:13;;;;;;;21.08;4.63;;;;;;;;;;5002567;28;20038;-71
2023/07/12 02:12:41;;;;;;;25.80;4.40;;;;;;;;;;4997580;28;20041;-70
2023/07/12 02:15:06;;;;;;;23.73;4.55;;;;;;;;;;4998149;28;20033;-70
2023/07/12 02:17:32;;;;;;;26.30;5.20;;;;;;;;;;4995890;28;20065;-72
2023/07/12 02:19:57;;;;;;;25.55;5.47;;;;;;;;;;4998462;28;20422;-66
2023/07/12 02:22:22;;;;;;;18.88;4.38;;;;;;;;;;4998555;28;20030;-67
2023/07/12 02:24:48;;;;;;;19.00;4.22;;;;;;;;;;4999967;28;20049;-66
2023/07/12 02:27:13;;;;;;;20.25;4.40;;;;;;;;;;4998496;28;20117;-68
2023/07/12 02:29:38;;;;;;;21.00;4.35;;;;;;;;;;5009339;28;20103;-67
2023/07/12 02:32:04;;;;;;;22.80;4.38;;;;;;;;;;5016952;28;20033;-66
2023/07/12 02:34:29;;;;;;;22.40;4.47;;;;;;;;;;5032556;28;20836;-66
2023/07/12 02:36:54;;;;;;;19.45;4.90;;;;;;;;;;5018207;28;20037;-67
2023/07/12 02:39:19;;;;;;;19.70;4.30;;;;;;;;;;5018263;28;20033;-68
2023/07/12 02:41:45;;;;;;;21.55;5.25;;;;;;;;;;5014479;28;20059;-66
2023/07/12 02:44:11;;;;;;;23.45;4.75;;;;;;;;;;5014156;28;20482;-67
2023/07/12 02:46:37;;;;;;;17.85;4.22;;;;;;;;;;5017357;28;20044;-65
2023/07/12 02:49:02;;;;;;;22.33;4.88;;;;;;;;;;5018016;28;20056;-67
2023/07/12 02:51:30;;;;;;;21.00;4.40;;;;;;;;;;5007884;28;20063;-67
2023/07/12 02:53:55;;;;;;;18.50;4.38;;;;;;;;;;5019687;28;20037;-68
2023/07/12 02:56:21;;;;;;;22.45;4.50;;;;;;;;;;5001717;28;20041;-67
2023/07/12 02:58:46;;;;;;;23.08;4.10;;;;;;;;;;5019270;28;20037;-67
2023/07/12 03:01:11;;;;;;;26.38;5.07;;;;;;;;;;5016320;28;20037;-64
2023/07/12 03:03:37;;;;;;;20.15;4.75;;;;;;;;;;5016478;28;20119;-68
2023/07/12 03:06:06;;;;;;;21.77;5.15;;;;;;;;;;5045774;28;20596;-66
2023/07/12 03:08:32;;;;;;;26.60;5.47;;;;;;;;;;5016256;28;20037;-67
2023/07/12 03:10:58;;;;;;;24.00;5.18;;;;;;;;;;5015763;28;20040;-66
2023/07/12 03:13:23;;;;;;;25.50;5.15;;;;;;;;;;5017639;28;20040;-67
2023/07/12 03:15:49;;;;;;;21.08;5.28;;;;;;;;;;5015516;28;20473;-67
2023/07/12 03:18:14;;;;;;;24.10;5.25;;;;;;;;;;5031536;28;20041;-66
2023/07/12 03:20:39;;;;;;;23.30;4.88;;;;;;;;;;4997915;28;20128;-68
2023/07/12 03:23:07;;;;;;;21.08;5.28;;;;;;;;;;4996979;28;20029;-68
2023/07/12 03:25:32;;;;;;;24.13;5.40;;;;;;;;;;4998485;28;20919;-67
2023/07/12 03:28:00;;;;;;;22.35;5.05;;;;;;;;;;4999242;28;20030;-66
2023/07/12 03:30:25;;;;;;;27.00;6.18;;;;;;;;;;4998084;28;20025;-67
2023/07/12 03:32:53;;;;;;;27.30;5.75;;;;;;;;;;5028619;28;20116;-67
2023/07/12 03:35:18;;;;;;;27.30;5.18;;;;;;;;;;4996887;28;20037;-66
2023/07/12 03:37:43;;;;;;;23.52;4.80;;;;;;;;;;5007771;28;20044;-67
2023/07/12 03:40:09;;;;;;;23.95;5.07;;;;;;;;;;5017584;28;20102;-66
2023/07/12 03:42:35;;;;;;;24.92;5.32;;;;;;;;;;5048482;28;20046;-66
2023/07/12 03:45:00;;;;;;;23.45;5.25;;;;;;;;;;5016469;28;20052;-67
2023/07/12 03:47:25;;;;;;;24.13;5.20;;;;;;;;;;5046646;28;20121;-67
2023/07/12 03:49:51;;;;;;;23.58;4.97;;;;;;;;;;5015450;28;20041;-68
2023/07/12 03:52:16;;;;;;;22.90;4.30;;;;;;;;;;5018203;28;20116;-67
2023/07/12 03:54:44;;;;;;;22.48;4.70;;;;;;;;;;5015851;28;20041;-67
2023/07/12 03:57:11;;;;;;;20.80;4.60;;;;;;;;;;5049465;28;20132;-67
2023/07/12 03:59:37;;;;;;;22.92;4.97;;;;;;;;;;5039470;28;20152;-67
2023/07/12 04:02:02;;;;;;;19.75;4.50;;;;;;;;;;5016090;28;20064;-69
2023/07/12 04:04:27;;;;;;;27.38;5.30;;;;;;;;;;5015768;28;20135;-67
2023/07/12 04:06:53;;;;;;;21.02;5.38;;;;;;;;;;5016069;28;20033;-66
2023/07/12 04:09:18;;;;;;;22.90;5.10;;;;;;;;;;5012679;28;20036;-68
2023/07/12 04:11:43;;;;;;;22.83;4.97;;;;;;;;;;5016669;28;20037;-66
2023/07/12 04:14:11;;;;;;;26.92;5.18;;;;;;;;;;5018384;28;20060;-66
2023/07/12 04:16:36;;;;;;;24.35;5.50;;;;;;;;;;5015906;28;20593;-70
2023/07/12 04:19:02;;;;;;;22.95;5.35;;;;;;;;;;5016235;28;20052;-66
2023/07/12 04:21:29;;;;;;;25.65;4.95;;;;;;;;;;5016914;28;20095;-67
2023/07/12 04:23:54;;;;;;;28.42;5.13;;;;;;;;;;5049593;28;20221;-67
2023/07/12 04:26:21;;;;;;;31.63;5.30;;;;;;;;;;5016727;28;20120;-65
2023/07/12 04:28:49;;;;;;;27.10;5.43;;;;;;;;;;5017781;28;20834;-68
2023/07/12 04:31:15;;;;;;;24.95;5.57;;;;;;;;;;5042363;28;20168;-67
2023/07/12 04:33:40;;;;;;;18.98;4.75;;;;;;;;;;5016145;28;20043;-67
2023/07/12 04:36:09;;;;;;;21.33;5.85;;;;;;;;;;5046937;28;21434;-67
2023/07/12 04:38:37;;;;;;;23.48;5.38;;;;;;;;;;5013972;28;20037;-66
2023/07/12 04:41:02;;;;;;;32.65;6.20;;;;;;;;;;5012065;28;20061;-63
2023/07/12 04:43:28;;;;;;;37.42;6.80;;;;;;;;;;5021177;28;20083;-64
2023/07/12 04:45:54;;;;;;;34.40;6.45;;;;;;;;;;5017490;28;20047;-64
2023/07/12 04:48:20;;;;;;;27.30;6.15;;;;;;;;;;5018550;28;20044;-65
2023/07/12 04:50:45;;;;;;;35.22;7.20;;;;;;;;;;5033724;28;20033;-65
2023/07/12 04:53:12;;;;;;;28.55;6.60;;;;;;;;;;5015622;28;20144;-64
2023/07/12 04:55:40;;;;;;;26.95;6.50;;;;;;;;;;4998780;28;20624;-66
2023/07/12 04:58:06;;;;;;;34.15;7.57;;;;;;;;;;5008869;28;20227;-65
2023/07/12 05:00:34;;;;;;;29.83;6.70;;;;;;;;;;5050828;28;20083;-62
2023/07/12 05:03:03;;;;;;;26.23;8.65;;;;;;;;;;5017390;28;20040;-66
2023/07/12 05:05:28;;;;;;;26.60;7.18;;;;;;;;;;5010814;28;20041;-66
2023/07/12 05:07:54;;;;;;;33.20;6.80;;;;;;;;;;5014628;28;20610;-67
2023/07/12 05:10:19;;;;;;;33.25;7.18;;;;;;;;;;5047779;28;20053;-64
2023/07/12 05:12:44;;;;;;;27.65;7.10;;;;;;;;;;5047761;28;20529;-67
2023/07/12 05:15:10;;;;;;;28.67;6.40;;;;;;;;;;5018644;28;20059;-65
2023/07/12 05:17:36;;;;;;;31.48;7.03;;;;;;;;;;5016847;28;20057;-63
2023/07/12 05:20:03;;;;;;;30.48;7.28;;;;;;;;;;4987231;28;20037;-66
2023/07/12 05:22:28;;;;;;;26.77;6.82;;;;;;;;;;4996313;28;20048;-66
2023/07/12 05:24:55;;;;;;;33.90;6.70;;;;;;;;;;4999871;28;20037;-63
2023/07/12 05:27:21;;;;;;;35.80;6.97;;;;;;;;;;5016493;28;20037;-64
2023/07/12 05:29:46;;;;;;;35.65;6.82;;;;;;;;;;5014619;28;20658;-64
2023/07/12 05:32:13;;;;;;;24.83;6.70;;;;;;;;;;5015665;28;20071;-65
2023/07/12 05:34:39;;;;;;;56.50;8.18;;;;;;;;;;5015616;28;20037;-65
2023/07/12 05:37:04;;;;;;;32.45;7.82;;;;;;;;;;5017155;28;20155;-65
2023/07/12 05:39:30;;;;;;;23.92;6.65;;;;;;;;;;5015313;28;20127;-67
2023/07/12 05:41:55;;;;;;;28.52;7.10;;;;;;;;;;5015024;28;20041;-66
2023/07/12 05:44:20;;;;;;;30.95;6.50;;;;;;;;;;4969019;28;20228;-65
2023/07/12 05:46:48;;;;;;;27.23;6.53;;;;;;;;;;5035475;28;20037;-63
2023/07/12 05:49:13;;;;;;;29.17;6.03;;;;;;;;;;5012636;28;20037;-65
2023/07/12 05:51:41;;;;;;;30.02;6.65;;;;;;;;;;5006203;28;20217;-65
2023/07/12 05:54:06;;;;;;;25.35;5.88;;;;;;;;;;4993819;28;20038;-68
2023/07/12 05:56:32;;;;;;;24.20;5.30;;;;;;;;;;4994501;28;20056;-66
2023/07/12 05:58:57;;;;;;;23.88;5.60;;;;;;;;;;5001049;28;20125;-66
2023/07/12 06:01:22;;;;;;;36.78;7.13;;;;;;;;;;5000164;28;20037;-66
2023/07/12 06:03:48;;;;;;;27.20;6.30;;;;;;;;;;5018188;28;20029;-65
2023/07/12 06:06:17;;;;;;;24.00;5.68;;;;;;;;;;5015953;28;20169;-65
2023/07/12 06:08:42;;;;;;;37.95;6.82;;;;;;;;;;5016103;28;20120;-64
2023/07/12 06:11:07;;;;;;;26.60;5.95;;;;;;;;;;5014340;28;20033;-65
2023/07/12 06:13:33;;;;;;;17.92;5.40;;;;;;;;;;5032049;28;20382;-62
2023/07/12 06:15:58;;;;;;;23.00;5.45;;;;;;;;;;5005716;28;20084;-64
2023/07/12 06:18:25;;;;;;;22.92;5.80;;;;;;;;;;5009461;28;20601;-64
2023/07/12 06:20:54;;;;;;;22.58;5.88;;;;;;;;;;5017962;28;20175;-65
2023/07/12 06:23:20;;;;;;;24.67;5.88;;;;;;;;;;5013443;28;20036;-66
2023/07/12 06:25:45;;;;;;;24.00;5.63;;;;;;;;;;5018355;28;20037;-64
2023/07/12 06:28:13;;;;;;;24.67;5.43;;;;;;;;;;5015051;28;20191;-66
2023/07/12 06:30:39;;;;;;;27.23;5.47;;;;;;;;;;4998337;28;20174;-66
2023/07/12 06:33:04;;;;;;;28.40;6.30;;;;;;;;;;4995207;28;20033;-64
2023/07/12 06:35:30;;;;;;;23.35;5.22;;;;;;;;;;5010149;28;20040;-66
2023/07/12 06:37:55;;;;;;;23.13;4.88;;;;;;;;;;5024382;28;20121;-66
2023/07/12 06:40:21;;;;;;;18.42;5.05;;;;;;;;;;5041946;28;20128;-66
2023/07/12 06:42:47;;;;;;;25.45;5.43;;;;;;;;;;5017234;28;20036;-67
2023/07/12 06:45:15;;;;;;;22.88;4.93;;;;;;;;;;5011719;28;20148;-66
2023/07/12 06:47:42;;;;;;;22.08;4.60;;;;;;;;;;5012029;28;20044;-67
2023/07/12 06:50:08;;;;;;;25.15;4.75;;;;;;;;;;5019988;28;20037;-68
2023/07/12 06:52:34;;;;;;;21.42;4.75;;;;;;;;;;5046355;28;20087;-69
2023/07/12 06:54:59;;;;;;;18.88;4.35;;;;;;;;;;5018659;28;20045;-66
2023/07/12 06:57:27;;;;;;;18.70;4.38;;;;;;;;;;5017249;28;20041;-67
2023/07/12 06:59:52;;;;;;;30.80;7.03;;;;;;;;;;5002565;28;20099;-68
2023/07/12 07:02:18;;;;;;;23.90;4.90;;;;;;;;;;5015049;28;20577;-63
2023/07/12 07:04:46;;;;;;;26.42;5.18;;;;;;;;;;5031335;28;20832;-67
2023/07/12 07:07:11;;;;;;;19.65;4.55;;;;;;;;;;5016137;28;20480;-68
2023/07/12 07:09:38;;;;;;;20.85;4.45;;;;;;;;;;5016193;28;20044;-67
2023/07/12 07:12:04;;;;;;;16.20;4.47;;;;;;;;;;5016459;28;20149;-67
2023/07/12 07:14:32;;;;;;;20.98;4.30;;;;;;;;;;5017631;28;20041;-66
2023/07/12 07:16:57;;;;;;;14.50;3.70;;;;;;;;;;5010908;28;20103;-65
2023/07/12 07:19:23;;;;;;;17.48;4.30;;;;;;;;;;5016999;28;20063;-66
2023/07/12 07:21:50;;;;;;;16.75;3.53;;;;;;;;;;5016242;28;20044;-66
2023/07/12 07:24:16;;;;;;;20.38;3.92;;;;;;;;;;5015611;28;20036;-67
2023/07/12 07:26:44;;;;;;;16.85;3.90;;;;;;;;;;5006739;28;20039;-68
2023/07/12 07:29:10;;;;;;;14.85;3.50;;;;;;;;;;5046301;28;20037;-68
2023/07/12 07:31:35;;;;;;;13.68;3.58;;;;;;;;;;5015163;28;20083;-68
2023/07/12 07:34:00;;;;;;;13.82;3.78;;;;;;;;;;5002787;28;20092;-67
2023/07/12 07:36:29;;;;;;;15.93;3.70;;;;;;;;;;5023110;28;20084;-68
2023/07/12 07:38:54;;;;;;;15.30;3.90;;;;;;;;;;5012347;28;20040;-67
2023/07/12 07:41:20;;;;;;;14.98;3.80;;;;;;;;;;5015655;28;20047;-67
2023/07/12 07:43:46;;;;;;;14.32;3.33;;;;;;;;;;5006118;28;20086;-70
2023/07/12 07:46:12;;;;;;;14.48;4.03;;;;;;;;;;5046742;28;20437;-66
2023/07/12 07:48:38;;;;;;;17.95;3.70;;;;;;;;;;5046440;28;20070;-68
2023/07/12 07:51:03;;;;;;;15.55;3.88;;;;;;;;;;5017641;28;20045;-68
2023/07/12 07:53:28;;;;;;;19.00;4.05;;;;;;;;;;5013869;28;20119;-69
2023/07/12 07:55:54;;;;;;;18.00;4.20;;;;;;;;;;5018242;28;20090;-67
2023/07/12 07:58:20;;;;;;;14.32;3.72;;;;;;;;;;5019101;28;20033;-68
2023/07/12 08:00:45;;;;;;;17.33;4.50;;;;;;;;;;5014702;28;20072;-65
2023/07/12 08:03:11;;;;;;;15.55;4.10;;;;;;;;;;5015460;28;20029;-67
2023/07/12 08:05:36;;;;;;;15.85;3.95;;;;;;;;;;5012737;28;20041;-66
2023/07/12 08:08:02;;;;;;;13.32;3.85;;;;;;;;;;5014903;28;20033;-66
2023/07/12 08:10:28;;;;;;;12.00;3.80;;;;;;;;;;5014410;28;20931;-67
2023/07/12 08:12:56;;;;;;;11.23;3.95;;;;;;;;;;5012749;28;20199;-67
2023/07/12 08:15:22;;;;;;;8.32;3.10;;;;;;;;;;5013465;28;20029;-68
2023/07/12 08:17:47;;;;;;;16.20;3.72;;;;;;;;;;5048719;28;20036;-67
2023/07/12 08:20:13;;;;;;;15.40;3.58;;;;;;;;;;5017482;28;20563;-65
2023/07/12 08:22:38;;;;;;;12.23;3.20;;;;;;;;;;5016363;28;20628;-66
2023/07/12 08:25:04;;;;;;;15.85;3.40;;;;;;;;;;5004719;28;20144;-66
2023/07/12 08:27:31;;;;;;;13.38;3.72;;;;;;;;;;4998838;28;20453;-64
2023/07/12 08:30:00;;;;;;;20.35;3.97;;;;;;;;;;5010012;28;20148;-67
2023/07/12 08:32:32;;;;;;;10.55;3.33;;;;;;;;;;5033268;28;20526;-67
2023/07/12 08:34:58;;;;;;;8.98;3.50;;;;;;;;;;5020901;28;20041;-65
2023/07/12 08:37:24;;;;;;;10.73;3.17;;;;;;;;;;5019581;28;22262;-67
2023/07/12 08:39:49;;;;;;;12.00;2.92;;;;;;;;;;5017037;28;20041;-67
2023/07/12 08:42:19;;;;;;;14.13;3.40;;;;;;;;;;5015314;28;20905;-65
2023/07/12 08:44:45;;;;;;;11.13;3.40;;;;;;;;;;5030108;28;20050;-65
2023/07/12 08:47:13;;;;;;;13.05;3.33;;;;;;;;;;5023438;28;20037;-65
2023/07/12 08:49:39;;;;;;;12.00;3.45;;;;;;;;;;5030988;28;20048;-65
2023/07/12 08:52:10;;;;;;;14.27;3.78;;;;;;;;;;5017022;28;20041;-69
2023/07/12 08:54:35;;;;;;;15.75;3.45;;;;;;;;;;5017039;28;20675;-66
2023/07/12 08:57:04;;;;;;;12.80;3.50;;;;;;;;;;5019553;28;20045;-68
2023/07/12 08:59:29;;;;;;;7.88;3.00;;;;;;;;;;5010041;28;20040;-67
2023/07/12 09:01:58;;;;;;;14.90;3.38;;;;;;;;;;5025361;28;20072;-68
2023/07/12 09:04:24;;;;;;;11.38;3.03;;;;;;;;;;4996489;28;20042;-67
2023/07/12 09:06:52;;;;;;;11.70;3.20;;;;;;;;;;5012332;28;20041;-65
2023/07/12 09:09:18;;;;;;;13.15;2.70;;;;;;;;;;4999101;28;20046;-65
2023/07/12 09:11:44;;;;;;;13.38;3.10;;;;;;;;;;4998077;28;20037;-66
2023/07/12 09:14:19;;;;;;;11.25;2.95;;;;;;;;;;4997232;28;20049;-69
2023/07/12 09:16:46;;;;;;;11.23;2.88;;;;;;;;;;5031494;28;20064;-65
2023/07/12 09:19:18;;;;;;;11.27;3.00;;;;;;;;;;5029879;28;20041;-68
2023/07/12 09:21:46;;;;;;;9.23;2.20;;;;;;;;;;5017829;28;20104;-65
2023/07/12 09:24:13;;;;;;;14.80;3.00;;;;;;;;;;5018390;28;20036;-67
2023/07/12 09:26:38;;;;;;;9.32;2.63;;;;;;;;;;4994652;28;20036;-67
2023/07/12 09:29:05;;;;;;;13.57;2.58;;;;;;;;;;4997521;28;20042;-65
2023/07/12 09:31:32;;;;;;;10.15;2.53;;;;;;;;;;5008308;28;20041;-65
2023/07/12 09:34:00;;;;;;;10.68;2.38;;;;;;;;;;5018253;28;20514;-69
2023/07/12 09:36:26;;;;;;;10.82;2.90;;;;;;;;;;5038376;28;20675;-63
2023/07/12 09:38:52;;;;;;;11.15;2.53;;;;;;;;;;4990142;28;20055;-67
2023/07/12 09:41:19;;;;;;;8.25;2.53;;;;;;;;;;5029010;28;20486;-66
2023/07/12 09:43:52;;;;;;;8.68;2.65;;;;;;;;;;5017416;28;21011;-64
2023/07/12 09:46:35;;;;;;;10.77;2.72;;;;;;;;;;5015586;28;20127;-64
2023/07/12 09:49:10;;;;;;;10.07;2.40;;;;;;;;;;5049123;28;20057;-64
2023/07/12 09:51:53;;;;;;;11.57;2.67;;;;;;;;;;5012258;28;20045;-67
2023/07/12 09:54:27;;;;;;;14.35;2.70;;;;;;;;;;5012312;28;20040;-65
2023/07/12 09:57:00;;;;;;;10.43;2.97;;;;;;;;;;5027741;28;20438;-66
2023/07/12 09:59:28;;;;;;;10.48;2.40;;;;;;;;;;4996049;28;20037;-66
2023/07/12 10:01:56;;;;;;;9.55;2.55;;;;;;;;;;4998029;28;20041;-66
2023/07/12 10:04:32;;;;;;;8.00;2.28;;;;;;;;;;4997761;28;22081;-66
2023/07/12 10:06:57;;;;;;;10.93;2.33;;;;;;;;;;4997517;28;20045;-65
2023/07/12 10:09:26;;;;;;;8.65;2.45;;;;;;;;;;4995158;28;20079;-65
2023/07/12 10:12:09;;;;;;;10.77;2.10;;;;;;;;;;5015853;28;20087;-64
2023/07/12 10:14:36;;;;;;;10.15;2.30;;;;;;;;;;5015517;28;20040;-65
2023/07/12 10:17:02;;;;;;;10.85;2.35;;;;;;;;;;5032603;28;20045;-66
2023/07/12 10:19:32;;;;;;;8.13;2.30;;;;;;;;;;5016529;28;20036;-64
2023/07/12 10:22:00;;;;;;;9.50;2.20;;;;;;;;;;5029035;28;20032;-64
2023/07/12 10:24:31;;;;;;;9.88;2.08;;;;;;;;;;5022591;28;20084;-64
2023/07/12 10:26:59;;;;;;;11.80;2.40;;;;;;;;;;4997828;28;20037;-66
2023/07/12 10:29:34;;;;;;;9.68;2.15;;;;;;;;;;4994192;28;20320;-66
2023/07/12 10:32:00;;;;;;;10.32;2.15;;;;;;;;;;5027253;28;20212;-67
2023/07/12 10:34:34;;;;;;;10.55;2.22;;;;;;;;;;4997380;28;20325;-66
2023/07/12 10:37:05;;;;;;;9.98;2.03;;;;;;;;;;4996449;28;20041;-64
2023/07/12 10:39:31;;;;;;;;;;;;;;;;;;5010104;28;20041;-66
2023/07/12 10:42:08;;;;;;;10.70;2.10;;;;;;;;;;5000836;28;20409;-64
2023/07/12 10:44:36;;;;;;;9.02;1.70;;;;;;;;;;4995985;28;20276;-67
2023/07/12 10:47:05;;;;;;;11.15;2.00;;;;;;;;;;5008287;28;20398;-66
2023/07/12 10:49:53;;;;;;;9.55;2.08;;;;;;;;;;5010042;28;20037;-65
2023/07/12 10:52:26;;;;;;;11.27;1.90;;;;;;;;;;5015710;28;20029;-66
2023/07/12 10:54:57;;;;;;;6.47;1.70;;;;;;;;;;5046485;28;20033;-65
2023/07/12 10:57:24;;;;;;;12.40;2.17;;;;;;;;;;5003831;28;20069;-67
2023/07/12 10:59:57;;;;;;;9.55;1.85;;;;;;;;;;5010822;28;22418;-68
2023/07/12 11:02:28;;;;;;;10.82;1.98;;;;;;;;;;5027749;28;20502;-66
2023/07/12 11:04:54;;;;;;;11.43;2.00;;;;;;;;;;5010918;28;20044;-65
2023/07/12 11:07:19;;;;;;;9.13;2.55;;;;;;;;;;5013376;28;20053;-64
2023/07/12 11:09:51;;;;;;;11.10;2.00;;;;;;;;;;5013641;28;20163;-64
2023/07/12 11:12:31;;;;;;;9.73;2.08;;;;;;;;;;5025641;28;20497;-66
2023/07/12 11:15:02;;;;;;;9.48;2.10;;;;;;;;;;5038213;28;20554;-66
2023/07/12 11:17:28;;;;;;;14.57;1.98;;;;;;;;;;5014630;28;20049;-65
2023/07/12 11:20:03;;;;;;;10.93;2.35;;;;;;;;;;5015557;28;20056;-65
2023/07/12 11:22:48;;;;;;;15.02;2.38;;;;;;;;;;5013481;28;20033;-65
2023/07/12 11:25:25;;;;;;;11.60;2.42;;;;;;;;;;5013487;28;20128;-65
2023/07/12 11:27:55;;;;;;;11.82;2.42;;;;;;;;;;5014137;28;20095;-65
2023/07/12 11:30:28;;;;;;;13.57;2.20;;;;;;;;;;5015879;28;20071;-65
2023/07/12 11:32:58;;;;;;;12.18;2.35;;;;;;;;;;5010239;28;20040;-64
2023/07/12 11:35:33;;;;;;;11.77;1.83;;;;;;;;;;4997629;28;20637;-64
2023/07/12 11:37:59;;;;;;;9.63;2.33;;;;;;;;;;5007230;28;20670;-63
2023/07/12 11:40:29;;;;;;;10.35;1.92;;;;;;;;;;5017007;28;20042;-65
2023/07/12 11:42:55;;;;;;;12.63;2.30;;;;;;;;;;5014882;28;20112;-65
2023/07/12 11:45:22;;;;;;;10.65;2.20;;;;;;;;;;5018025;28;20522;-63
2023/07/12 11:47:49;;;;;;;16.98;2.95;;;;;;;;;;5014972;28;20121;-65
2023/07/12 11:50:19;;;;;;;9.57;2.30;;;;;;;;;;5050535;28;20044;-67
2023/07/12 11:52:45;;;;;;;16.58;2.70;;;;;;;;;;5002737;28;20052;-66
2023/07/12 11:55:15;;;;;;;14.60;2.63;;;;;;;;;;4996787;28;20033;-66
2023/07/12 11:57:44;;;;;;;16.25;2.13;;;;;;;;;;5030364;28;20045;-64
2023/07/12 12:00:20;;;;;;;16.67;2.58;;;;;;;;;;5005356;28;20781;-67
2023/07/12 12:02:50;;;;;;;22.13;2.80;;;;;;;;;;5019979;28;20044;-65
2023/07/12 12:05:25;;;;;;;19.13;2.67;;;;;;;;;;5020612;28;20048;-65
2023/07/12 12:07:52;;;;;;;16.15;2.55;;;;;;;;;;5020121;28;20091;-67
2023/07/12 12:10:27;;;;;;;17.33;2.60;;;;;;;;;;5017890;28;20045;-68
2023/07/12 12:12:53;;;;;;;14.52;2.30;;;;;;;;;;5015218;28;20103;-65
2023/07/12 12:15:21;;;;;;;14.30;2.83;;;;;;;;;;5020629;28;20037;-65
2023/07/12 12:17:48;;;;;;;12.18;2.42;;;;;;;;;;4999547;28;20046;-66
2023/07/12 12:20:18;;;;;;;11.52;2.13;;;;;;;;;;4997165;28;20045;-68
2023/07/12 12:22:44;;;;;;;11.65;2.30;;;;;;;;;;5000152;28;20040;-66
2023/07/12 12:25:16;;;;;;;16.25;2.65;;;;;;;;;;4998296;28;20053;-69
2023/07/12 12:27:43;;;;;;;13.15;2.17;;;;;;;;;;4999269;28;20053;-66
2023/07/12 12:30:15;;;;;;;16.52;2.58;;;;;;;;;;5040734;28;20061;-68
2023/07/12 12:32:40;;;;;;;15.20;2.63;;;;;;;;;;5019408;28;20040;-69
2023/07/12 12:35:09;;;;;;;14.13;2.28;;;;;;;;;;5008672;28;20048;-67
2023/07/12 12:37:37;;;;;;;7.45;2.17;;;;;;;;;;5047651;28;20074;-67
2023/07/12 12:40:04;;;;;;;14.35;2.47;;;;;;;;;;5019968;28;20614;-64
2023/07/12 12:42:30;;;;;;;18.45;2.88;;;;;;;;;;5019100;28;20029;-67
2023/07/12 12:44:58;;;;;;;12.32;3.15;;;;;;;;;;5019779;28;20079;-66
2023/07/12 12:47:30;;;;;;;14.18;3.50;;;;;;;;;;5016448;28;20029;-65
2023/07/12 12:49:58;;;;;;;19.85;3.60;;;;;;;;;;5013103;28;20113;-64
2023/07/12 12:52:34;;;;;;;15.20;2.97;;;;;;;;;;5014728;28;20659;-64
2023/07/12 12:55:01;;;;;;;20.92;3.42;;;;;;;;;;5013621;28;20044;-66
2023/07/12 12:57:30;;;;;;;15.65;2.65;;;;;;;;;;5014302;28;20044;-66
2023/07/12 12:59:55;;;;;;;15.82;3.00;;;;;;;;;;5011903;28;20695;-64
2023/07/12 13:02:21;;;;;;;15.98;3.10;;;;;;;;;;5037972;28;20037;-65
2023/07/12 13:04:47;;;;;;;21.02;2.95;;;;;;;;;;4995986;28;20037;-67
2023/07/12 13:07:20;;;;;;;16.40;2.75;;;;;;;;;;4988886;28;20069;-67
2023/07/12 13:09:45;;;;;;;24.45;3.00;;;;;;;;;;5013399;28;20067;-66
2023/07/12 13:12:19;;;;;;;16.00;2.60;;;;;;;;;;5014303;28;20755;-67
2023/07/12 13:14:44;;;;;;;14.60;2.30;;;;;;;;;;5012036;28;20658;-65
2023/07/12 13:17:14;;;;;;;15.32;2.47;;;;;;;;;;4996298;28;20347;-65
2023/07/12 13:19:42;;;;;;;11.95;2.72;;;;;;;;;;5012069;28;20041;-66
2023/07/12 13:22:12;;;;;;;12.98;3.10;;;;;;;;;;5044420;28;20441;-67
2023/07/12 13:24:37;;;;;;;14.77;2.83;;;;;;;;;;5013094;28;20041;-67
2023/07/12 13:27:03;;;;;;;11.93;2.63;;;;;;;;;;5047135;28;20128;-64
2023/07/12 13:29:28;;;;;;;17.27;2.72;;;;;;;;;;5008481;28;20044;-64
2023/07/12 13:31:54;;;;;;;14.75;2.75;;;;;;;;;;5046240;28;20609;-65
2023/07/12 13:34:19;;;;;;;16.92;2.70;;;;;;;;;;5029606;28;20048;-67
2023/07/12 13:36:46;;;;;;;13.13;2.38;;;;;;;;;;5012010;28;20576;-65
2023/07/12 13:39:13;;;;;;;18.83;3.50;;;;;;;;;;5028233;28;20130;-65
2023/07/12 13:41:38;;;;;;;12.70;2.40;;;;;;;;;;5030221;28;20079;-67
2023/07/12 13:44:04;;;;;;;12.43;2.60;;;;;;;;;;5002387;28;20033;-65
2023/07/12 13:46:31;;;;;;;15.45;2.47;;;;;;;;;;5012009;28;20087;-65
2023/07/12 13:48:57;;;;;;;12.95;2.63;;;;;;;;;;5013401;28;20577;-65
2023/07/12 13:51:23;;;;;;;19.25;2.88;;;;;;;;;;5013440;28;20083;-67
2023/07/12 13:53:49;;;;;;;15.75;2.40;;;;;;;;;;5011272;28;20431;-66
2023/07/12 13:56:14;;;;;;;13.95;3.33;;;;;;;;;;5014063;28;20056;-64
2023/07/12 13:58:40;;;;;;;10.90;2.38;;;;;;;;;;5014228;28;20788;-67
2023/07/12 14:01:05;;;;;;;15.13;3.05;;;;;;;;;;5042909;28;20040;-69
2023/07/12 14:03:31;;;;;;;14.68;3.00;;;;;;;;;;5014066;28;20697;-68
2023/07/12 14:05:56;;;;;;;11.70;2.80;;;;;;;;;;5010514;28;20053;-64
2023/07/12 14:08:21;;;;;;;10.50;2.30;;;;;;;;;;5030810;28;20044;-67
2023/07/12 14:10:47;;;;;;;10.27;2.75;;;;;;;;;;5013895;28;20087;-68
2023/07/12 14:13:22;;;;;;;14.98;3.05;;;;;;;;;;5010704;28;20135;-69
2023/07/12 14:15:47;;;;;;;12.25;2.28;;;;;;;;;;5035008;28;20068;-64
2023/07/12 14:18:12;;;;;;;13.63;2.88;;;;;;;;;;4995412;28;20049;-66
2023/07/12 14:20:41;;;;;;;14.70;2.90;;;;;;;;;;5025528;28;20244;-68
2023/07/12 14:23:13;;;;;;;9.15;2.50;;;;;;;;;;4994683;28;20807;-68
2023/07/12 14:25:38;;;;;;;11.55;2.70;;;;;;;;;;4992489;28;20458;-67
2023/07/12 14:28:04;;;;;;;15.13;2.47;;;;;;;;;;4994582;28;20040;-66
2023/07/12 14:30:30;;;;;;;16.40;2.47;;;;;;;;;;5026786;28;23252;-68